createdAt,value
2018-09-15T00:01:47.695Z,70.65
2018-09-15T00:04:17.872Z,70.89
2018-09-15T00:06:47.984Z,70.12
2018-09-15T00:09:18.064Z,70.27
2018-09-15T00:11:48.172Z,70.41
2018-09-15T00:14:18.262Z,70.35
2018-09-15T00:16:48.341Z,71.08
2018-09-15T00:19:18.448Z,70.87
2018-09-15T00:21:48.588Z,71.27
2018-09-15T00:24:18.686Z,70.96
2018-09-15T00:26:48.704Z,71.97
2018-09-15T00:29:18.860Z,71.87
2018-09-15T00:31:48.929Z,71.53
2018-09-15T00:34:19.052Z,71.21
2018-09-15T00:36:49.071Z,71.77
2018-09-15T00:39:19.173Z,72.01
2018-09-15T00:41:50.380Z,71.54
2018-09-15T00:44:19.484Z,71.44
2018-09-15T00:46:49.530Z,71.40
2018-09-15T00:49:19.607Z,71.83
2018-09-15T00:51:49.600Z,71.83
2018-09-15T00:54:19.796Z,71.58
2018-09-15T00:56:49.903Z,71.82
2018-09-15T00:59:19.926Z,71.50
2018-09-15T01:01:50.036Z,71.43
2018-09-15T01:04:20.222Z,70.79
2018-09-15T01:06:50.288Z,70.92
2018-09-15T01:09:20.304Z,70.69
2018-09-15T01:11:50.417Z,71.40
2018-09-15T01:14:20.642Z,71.32
2018-09-15T01:16:49.911Z,71.68
2018-09-15T01:19:19.080Z,71.78
2018-09-15T01:21:48.227Z,70.66
2018-09-15T01:24:17.394Z,70.97
2018-09-15T01:26:46.538Z,70.65
2018-09-15T01:29:15.732Z,70.91
2018-09-15T01:31:45.428Z,70.25
2018-09-15T01:34:14.576Z,70.43
2018-09-15T01:36:43.715Z,69.97
2018-09-15T01:39:12.871Z,69.90
2018-09-15T01:41:42.020Z,70.27
2018-09-15T01:44:11.187Z,69.97
2018-09-15T01:46:40.343Z,70.53
2018-09-15T01:49:09.511Z,70.06
2018-09-15T01:51:38.690Z,69.75
2018-09-15T01:54:07.866Z,69.95
2018-09-15T01:56:37.043Z,70.43
2018-09-15T01:59:06.211Z,70.43
2018-09-15T02:01:35.496Z,70.16
2018-09-15T02:04:04.646Z,68.76
2018-09-15T02:06:33.794Z,68.36
2018-09-15T02:09:02.987Z,68.82
2018-09-15T02:11:32.158Z,67.68
2018-09-15T02:14:01.388Z,68.67
2018-09-15T02:16:30.806Z,68.20
2018-09-15T02:19:01.251Z,68.03
2018-09-15T02:21:31.191Z,66.94
2018-09-15T02:24:01.306Z,67.67
2018-09-15T02:26:31.312Z,66.79
2018-09-15T02:29:01.582Z,67.28
2018-09-15T02:31:31.543Z,67.56
2018-09-15T02:34:01.560Z,68.21
2018-09-15T02:36:31.663Z,68.31
2018-09-15T02:39:01.699Z,68.90
2018-09-15T02:41:31.818Z,68.38
2018-09-15T02:44:01.803Z,68.31
2018-09-15T02:46:31.934Z,68.01
2018-09-15T02:49:02.019Z,68.43
2018-09-15T02:51:32.008Z,68.05
2018-09-15T02:54:02.074Z,68.94
2018-09-15T02:56:32.219Z,68.24
2018-09-15T02:59:02.222Z,68.80
2018-09-15T03:01:32.248Z,68.38
2018-09-15T03:04:02.407Z,68.75
2018-09-15T03:06:32.483Z,68.00
2018-09-15T03:09:02.495Z,69.13
2018-09-15T03:11:32.512Z,68.40
2018-09-15T03:14:02.655Z,68.54
2018-09-15T03:16:32.672Z,69.55
2018-09-15T03:19:02.775Z,69.24
2018-09-15T03:21:32.787Z,68.05
2018-09-15T03:24:03.450Z,68.38
2018-09-15T03:26:32.946Z,68.42
2018-09-15T03:29:03.126Z,68.45
2018-09-15T03:31:33.094Z,68.67
2018-09-15T03:34:03.122Z,69.07
2018-09-15T03:36:33.255Z,68.00
2018-09-15T03:39:03.339Z,67.79
2018-09-15T03:41:33.531Z,68.82
2018-09-15T03:44:03.451Z,67.79
2018-09-15T03:46:33.514Z,68.37
2018-09-15T03:49:03.633Z,67.96
2018-09-15T03:51:33.827Z,67.74
2018-09-15T03:54:03.711Z,68.12
2018-09-15T03:56:33.819Z,68.37
2018-09-15T03:59:03.859Z,67.33
2018-09-15T04:01:33.887Z,67.14
2018-09-15T04:04:04.002Z,67.36
2018-09-15T04:06:34.147Z,67.18
2018-09-15T04:09:04.478Z,66.93
2018-09-15T04:11:34.204Z,67.42
2018-09-15T04:14:04.327Z,67.01
2018-09-15T04:16:34.314Z,66.78
2018-09-15T04:19:04.407Z,67.29
2018-09-15T04:21:34.527Z,66.86
2018-09-15T04:24:04.540Z,66.64
2018-09-15T04:26:35.024Z,67.62
2018-09-15T04:29:04.835Z,67.43
2018-09-15T04:31:34.856Z,67.26
2018-09-15T04:34:04.863Z,66.64
2018-09-15T04:36:34.909Z,68.46
2018-09-15T04:39:08.271Z,67.78
2018-09-15T04:41:37.487Z,67.34
2018-09-15T04:44:06.879Z,66.91
2018-09-15T04:46:36.089Z,67.65
2018-09-15T04:49:05.474Z,67.15
2018-09-15T04:51:35.460Z,67.02
2018-09-15T04:54:05.447Z,67.37
2018-09-15T04:56:35.879Z,66.84
2018-09-15T04:59:08.451Z,67.34
2018-09-15T05:01:37.615Z,66.80
2018-09-15T05:04:15.163Z,66.01
2018-09-15T05:06:44.566Z,67.36
2018-09-15T05:09:14.111Z,67.13
2018-09-15T05:11:43.367Z,67.18
2018-09-15T05:14:12.626Z,66.71
2018-09-15T05:16:41.822Z,67.50
2018-09-15T05:19:11.023Z,67.48
2018-09-15T05:21:40.239Z,67.45
2018-09-15T05:24:09.398Z,68.14
2018-09-15T05:26:38.574Z,68.75
2018-09-15T05:29:09.543Z,68.57
2018-09-15T05:31:39.974Z,68.71
2018-09-15T05:34:09.378Z,68.44
2018-09-15T05:36:38.568Z,68.49
2018-09-15T05:39:10.951Z,68.28
2018-09-15T05:41:40.159Z,67.69
2018-09-15T05:44:09.551Z,67.39
2018-09-15T05:46:40.111Z,67.44
2018-09-15T05:49:09.423Z,68.10
2018-09-15T05:51:38.596Z,67.60
2018-09-15T05:54:07.823Z,66.89
2018-09-15T05:56:37.377Z,67.23
2018-09-15T05:59:07.804Z,66.75
2018-09-15T06:01:37.609Z,67.48
2018-09-15T06:04:07.659Z,67.31
2018-09-15T06:06:37.843Z,66.31
2018-09-15T06:09:09.930Z,66.66
2018-09-15T06:11:39.175Z,66.98
2018-09-15T06:14:08.431Z,67.15
2018-09-15T06:16:38.191Z,66.76
2018-09-15T06:19:08.149Z,66.38
2018-09-15T06:21:38.251Z,67.32
2018-09-15T06:24:08.211Z,66.31
2018-09-15T06:26:38.174Z,66.69
2018-09-15T06:29:08.359Z,66.63
2018-09-15T06:31:38.359Z,65.89
2018-09-15T06:34:08.433Z,66.00
2018-09-15T06:36:38.684Z,65.63
2018-09-15T06:39:10.777Z,65.50
2018-09-15T06:41:40.203Z,65.03
2018-09-15T06:44:09.358Z,64.65
2018-09-15T06:46:38.599Z,64.37
2018-09-15T06:49:07.787Z,64.17
2018-09-15T06:51:36.999Z,63.32
2018-09-15T06:54:06.460Z,60.79
2018-09-15T06:56:36.610Z,61.06
2018-09-15T06:59:06.604Z,60.98
2018-09-15T07:01:39.740Z,60.69
2018-09-15T07:04:11.093Z,61.02
2018-09-15T07:06:40.384Z,59.63
2018-09-15T07:09:12.655Z,58.07
2018-09-15T07:11:41.807Z,59.44
2018-09-15T07:14:11.578Z,58.56
2018-09-15T07:16:40.956Z,58.20
2018-09-15T07:19:10.111Z,57.79
2018-09-15T07:21:39.246Z,57.65
2018-09-15T07:24:08.406Z,57.49
2018-09-15T07:26:37.875Z,58.10
2018-09-15T07:29:07.627Z,55.33
2018-09-15T07:31:37.919Z,54.94
2018-09-15T07:34:07.831Z,55.34
2018-09-15T07:36:40.601Z,55.82
2018-09-15T07:39:11.588Z,56.00
2018-09-15T07:41:41.031Z,54.89
2018-09-15T07:44:10.192Z,54.57
2018-09-15T07:46:39.345Z,52.51
2018-09-15T07:49:08.491Z,51.34
2018-09-15T07:51:38.352Z,51.62
2018-09-15T07:54:08.406Z,53.33
2018-09-15T07:56:38.546Z,53.09
2018-09-15T07:59:08.656Z,52.51
2018-09-15T08:01:38.623Z,51.29
2018-09-15T08:04:08.708Z,52.72
2018-09-15T08:06:38.962Z,52.56
2018-09-15T08:09:09.083Z,50.54
2018-09-15T08:11:39.232Z,50.33
2018-09-15T08:14:09.172Z,50.45
2018-09-15T08:16:39.383Z,50.74
2018-09-15T08:19:09.308Z,50.03
2018-09-15T08:21:39.525Z,48.61
2018-09-15T08:24:09.443Z,51.09
2018-09-15T08:31:43.547Z,50.15
2018-09-15T08:34:12.701Z,49.90
2018-09-15T08:36:42.173Z,46.77
2018-09-15T08:39:11.499Z,48.63
2018-09-15T08:41:41.031Z,47.98
2018-09-15T08:44:10.198Z,49.31
2018-09-15T08:46:40.110Z,48.74
2018-09-15T08:49:10.171Z,46.74
2018-09-15T08:51:39.991Z,47.67
2018-09-15T08:54:10.031Z,49.24
2018-09-15T08:56:40.178Z,47.68
2018-09-15T08:59:10.143Z,44.35
2018-09-15T09:01:40.062Z,44.37
2018-09-15T09:04:10.115Z,44.90
2018-09-15T09:06:40.143Z,44.94
2018-09-15T09:09:11.675Z,45.42
2018-09-15T09:11:40.848Z,45.64
2018-09-15T09:14:11.051Z,45.90
2018-09-15T09:16:40.196Z,46.80
2018-09-15T09:19:09.351Z,46.21
2018-09-15T09:21:38.499Z,45.15
2018-09-15T09:24:07.681Z,45.59
2018-09-15T09:26:37.210Z,46.36
2018-09-15T09:29:06.275Z,45.60
2018-09-15T09:31:35.431Z,44.35
2018-09-15T09:34:04.589Z,45.09
2018-09-15T09:36:33.737Z,44.67
2018-09-15T09:39:02.886Z,42.89
2018-09-15T09:41:32.112Z,43.44
2018-09-15T09:44:02.482Z,43.79
2018-09-15T09:46:31.662Z,43.69
2018-09-15T09:49:01.619Z,42.71
2018-09-15T09:51:31.651Z,43.42
2018-09-15T09:54:01.758Z,41.77
2018-09-15T09:56:31.723Z,41.40
2018-09-15T09:59:01.889Z,42.12
2018-09-15T10:01:37.155Z,43.01
2018-09-15T10:04:06.693Z,42.80
2018-09-15T10:06:35.857Z,44.39
2018-09-15T10:09:07.963Z,44.60
2018-09-15T10:11:37.463Z,42.40
2018-09-15T10:14:06.647Z,42.62
2018-09-15T10:16:35.790Z,41.56
2018-09-15T10:19:04.947Z,43.52
2018-09-15T10:21:34.162Z,43.19
2018-09-15T10:24:03.239Z,42.81
2018-09-15T10:26:32.800Z,43.04
2018-09-15T10:29:02.818Z,43.39
2018-09-15T10:31:32.898Z,43.60
2018-09-15T10:34:02.947Z,44.68
2018-09-15T10:36:32.985Z,44.62
2018-09-15T10:39:03.140Z,43.72
2018-09-15T10:41:33.111Z,43.80
2018-09-15T10:44:03.122Z,41.05
2018-09-15T10:46:33.337Z,42.74
2018-09-15T10:49:03.258Z,41.34
2018-09-15T10:51:33.286Z,42.65
2018-09-15T10:54:03.295Z,42.67
2018-09-15T10:56:33.468Z,41.07
2018-09-15T10:59:03.430Z,41.40
2018-09-15T11:01:33.442Z,41.76
2018-09-15T11:04:03.605Z,40.23
2018-09-15T11:06:33.599Z,40.71
2018-09-15T11:09:04.887Z,41.33
2018-09-15T11:11:34.039Z,41.07
2018-09-15T11:14:03.798Z,39.22
2018-09-15T11:16:33.764Z,39.93
2018-09-15T11:19:03.882Z,41.46
2018-09-15T11:21:33.859Z,40.73
2018-09-15T11:24:04.013Z,41.38
2018-09-15T11:26:34.035Z,42.67
2018-09-15T11:29:04.172Z,41.10
2018-09-15T11:31:34.078Z,42.46
2018-09-15T11:34:04.475Z,43.34
2018-09-15T11:36:34.158Z,42.66
2018-09-15T11:39:05.543Z,42.79
2018-09-15T11:41:34.682Z,42.03
2018-09-15T11:44:04.351Z,42.04
2018-09-15T11:46:34.502Z,42.39
2018-09-15T11:49:04.547Z,42.06
2018-09-15T11:51:34.595Z,42.88
2018-09-15T11:54:04.559Z,44.08
2018-09-15T11:56:34.651Z,42.56
2018-09-15T11:59:04.663Z,41.66
2018-09-15T12:01:34.686Z,41.67
2018-09-15T12:04:04.739Z,41.06
2018-09-15T12:06:34.939Z,39.31
2018-09-15T12:09:07.168Z,40.81
2018-09-15T12:11:36.318Z,40.14
2018-09-15T12:14:05.519Z,40.41
2018-09-15T12:16:35.119Z,40.58
2018-09-15T12:19:05.375Z,40.82
2018-09-15T12:21:35.390Z,43.80
2018-09-15T12:24:05.361Z,41.92
2018-09-15T12:26:35.335Z,40.09
2018-09-15T12:29:05.615Z,41.54
2018-09-15T12:31:35.495Z,38.52
2018-09-15T12:34:05.498Z,40.85
2018-09-15T12:36:35.638Z,40.65
2018-09-15T12:39:08.254Z,39.21
2018-09-15T12:41:37.395Z,42.29
2018-09-15T12:44:06.547Z,39.42
2018-09-15T12:46:35.870Z,38.78
2018-09-15T12:49:06.091Z,40.42
2018-09-15T12:51:35.946Z,38.76
2018-09-15T12:54:06.602Z,37.42
2018-09-15T12:56:36.135Z,37.34
2018-09-15T12:59:06.106Z,37.73
2018-09-15T13:01:36.135Z,38.12
2018-09-15T13:04:06.202Z,37.92
2018-09-15T13:06:36.253Z,39.35
2018-09-15T13:09:09.995Z,39.99
2018-09-15T13:11:39.175Z,40.08
2018-09-15T13:14:08.622Z,38.41
2018-09-15T13:16:38.134Z,38.90
2018-09-15T13:19:07.277Z,38.35
2018-09-15T13:21:36.558Z,38.33
2018-09-15T13:24:07.027Z,38.34
2018-09-15T13:26:36.728Z,38.07
2018-09-15T13:29:06.822Z,37.83
2018-09-15T13:31:36.832Z,35.91
2018-09-15T13:34:06.987Z,37.20
2018-09-15T13:36:36.870Z,36.92
2018-09-15T13:39:09.948Z,37.30
2018-09-15T13:41:39.078Z,37.53
2018-09-15T13:44:08.521Z,37.04
2018-09-15T13:46:37.698Z,35.96
2018-09-15T13:49:07.628Z,36.24
2018-09-15T13:51:37.282Z,35.82
2018-09-15T13:54:07.443Z,35.85
2018-09-15T13:56:37.331Z,35.94
2018-09-15T13:59:07.439Z,35.73
2018-09-15T14:01:37.499Z,36.79
2018-09-15T14:04:07.616Z,36.59
2018-09-15T14:06:37.587Z,36.91
2018-09-15T14:09:10.067Z,36.80
2018-09-15T14:11:39.514Z,37.03
2018-09-15T14:14:08.688Z,37.41
2018-09-15T14:16:37.829Z,36.47
2018-09-15T14:19:07.899Z,37.34
2018-09-15T14:21:37.919Z,36.15
2018-09-15T14:24:08.080Z,36.51
2018-09-15T14:26:38.134Z,35.54
2018-09-15T14:29:08.180Z,36.35
2018-09-15T14:31:38.270Z,36.59
2018-09-15T14:34:08.315Z,36.81
2018-09-15T14:36:38.688Z,36.03
2018-09-15T14:39:10.798Z,37.99
2018-09-15T14:41:39.943Z,38.21
2018-09-15T14:44:09.143Z,37.45
2018-09-15T14:46:39.051Z,36.67
2018-09-15T14:49:09.032Z,36.67
2018-09-15T14:51:39.027Z,38.28
2018-09-15T14:54:09.171Z,38.38
2018-09-15T14:56:38.318Z,37.86
2018-09-15T14:59:07.732Z,37.16
2018-09-15T15:01:36.974Z,37.34
2018-09-15T15:04:06.134Z,35.92
2018-09-15T15:06:35.282Z,36.76
2018-09-15T15:09:05.940Z,36.61
2018-09-15T15:11:35.152Z,35.83
2018-09-15T15:14:04.308Z,35.18
2018-09-15T15:16:33.451Z,36.38
2018-09-15T15:19:02.602Z,36.06
2018-09-15T15:21:31.740Z,37.04
2018-09-15T15:24:00.927Z,36.45
2018-09-15T15:26:30.149Z,38.00
2018-09-15T15:28:59.315Z,36.69
2018-09-15T15:31:29.475Z,37.15
2018-09-15T15:33:58.586Z,37.45
2018-09-15T15:36:27.728Z,37.62
2018-09-15T15:38:56.919Z,38.81
2018-09-15T15:41:26.063Z,37.76
2018-09-15T15:43:55.245Z,38.24
2018-09-15T15:46:24.339Z,37.80
2018-09-15T15:48:53.474Z,38.22
2018-09-15T15:51:22.700Z,38.77
2018-09-15T15:53:52.075Z,38.64
2018-09-15T15:56:21.230Z,38.70
2018-09-15T15:58:50.766Z,39.06
2018-09-15T16:01:20.375Z,38.30
2018-09-15T16:03:49.602Z,39.09
2018-09-15T16:06:18.751Z,39.31
2018-09-15T16:08:48.003Z,38.67
2018-09-15T16:11:17.244Z,38.68
2018-09-15T16:13:46.318Z,39.60
2018-09-15T16:16:15.459Z,38.48
2018-09-15T16:18:44.795Z,38.33
2018-09-15T16:21:13.944Z,38.57
2018-09-15T16:23:43.109Z,39.07
2018-09-15T16:26:12.258Z,38.75
2018-09-15T16:28:42.175Z,39.21
2018-09-15T16:31:12.281Z,38.97
2018-09-15T16:33:42.286Z,38.40
2018-09-15T16:36:12.427Z,39.56
2018-09-15T16:38:42.535Z,39.35
2018-09-15T16:41:12.562Z,39.18
2018-09-15T16:43:42.842Z,39.70
2018-09-15T16:46:12.635Z,40.06
2018-09-15T16:48:42.803Z,39.45
2018-09-15T16:51:12.834Z,40.33
2018-09-15T16:53:42.891Z,39.96
2018-09-15T16:56:13.063Z,40.49
2018-09-15T16:58:43.138Z,40.40
2018-09-15T17:01:13.149Z,39.99
2018-09-15T17:03:43.271Z,40.60
2018-09-15T17:06:13.243Z,40.89
2018-09-15T17:08:43.355Z,40.48
2018-09-15T17:11:13.470Z,41.00
2018-09-15T17:13:43.570Z,40.50
2018-09-15T17:16:13.610Z,40.79
2018-09-15T17:18:43.687Z,40.93
2018-09-15T17:21:13.750Z,41.31
2018-09-15T17:23:43.811Z,41.48
2018-09-15T17:28:39.157Z,41.77
2018-09-15T17:31:08.343Z,41.90
2018-09-15T17:33:37.447Z,41.64
2018-09-15T17:36:06.843Z,41.75
2018-09-15T17:38:36.238Z,43.12
2018-09-15T17:41:05.446Z,42.82
2018-09-15T17:43:34.589Z,43.13
2018-09-15T17:46:03.911Z,43.19
2018-09-15T17:48:33.051Z,44.30
2018-09-15T17:51:02.199Z,44.19
2018-09-15T17:53:31.419Z,43.70
2018-09-15T17:56:00.566Z,41.67
2018-09-15T17:58:29.706Z,42.71
2018-09-15T18:00:58.898Z,42.52
2018-09-15T18:03:28.083Z,43.96
2018-09-15T18:05:57.190Z,43.44
2018-09-15T18:08:26.332Z,44.16
2018-09-15T18:10:55.516Z,44.59
2018-09-15T18:13:24.667Z,44.73
2018-09-15T18:15:53.819Z,44.51
2018-09-15T18:18:22.963Z,43.71
2018-09-15T18:20:52.663Z,44.31
2018-09-15T18:23:21.807Z,44.88
2018-09-15T18:25:52.404Z,45.06
2018-09-15T18:28:21.542Z,45.17
2018-09-15T18:30:50.690Z,44.79
2018-09-15T18:33:19.831Z,44.24
2018-09-15T18:35:48.998Z,45.38
2018-09-15T18:38:18.131Z,44.84
2018-09-15T18:40:47.395Z,45.30
2018-09-15T18:43:16.556Z,45.93
2018-09-15T18:45:45.858Z,45.78
2018-09-15T18:48:16.047Z,46.12
2018-09-15T18:50:46.056Z,45.98
2018-09-15T18:53:16.043Z,47.48
2018-09-15T18:55:46.142Z,48.46
2018-09-15T18:58:16.279Z,49.39
2018-09-15T19:00:46.352Z,49.45
2018-09-15T19:03:17.083Z,49.88
2018-09-15T19:05:47.021Z,50.88
2018-09-15T19:08:16.451Z,50.58
2018-09-15T19:10:46.794Z,50.98
2018-09-15T19:13:16.691Z,51.12
2018-09-15T19:15:46.755Z,50.72
2018-09-15T19:18:16.858Z,49.47
2018-09-15T19:20:46.827Z,50.17
2018-09-15T19:23:16.843Z,50.94
2018-09-15T19:25:46.963Z,51.69
2018-09-15T19:28:17.050Z,50.64
2018-09-15T19:30:47.107Z,50.55
2018-09-15T19:33:17.227Z,49.68
2018-09-15T19:35:47.294Z,49.92
2018-09-15T19:38:17.427Z,50.06
2018-09-15T19:40:47.407Z,51.25
2018-09-15T19:43:17.611Z,51.24
2018-09-15T19:45:48.203Z,51.84
2018-09-15T19:48:17.990Z,51.54
2018-09-15T19:50:47.583Z,52.97
2018-09-15T19:53:17.674Z,53.63
2018-09-15T19:55:48.090Z,52.21
2018-09-15T19:58:17.919Z,52.22
2018-09-15T20:00:48.139Z,52.62
2018-09-15T20:03:18.046Z,54.76
2018-09-15T20:05:48.060Z,54.71
2018-09-15T20:08:18.196Z,54.23
2018-09-15T20:10:48.297Z,53.89
2018-09-15T20:13:18.331Z,53.23
2018-09-15T20:15:47.011Z,53.66
2018-09-15T20:18:14.683Z,53.05
2018-09-15T20:20:42.347Z,53.53
2018-09-15T20:23:11.500Z,54.28
2018-09-15T20:25:40.643Z,54.34
2018-09-15T20:28:09.851Z,54.15
2018-09-15T20:30:38.997Z,53.92
2018-09-15T20:33:08.266Z,54.77
2018-09-15T20:35:37.341Z,53.80
2018-09-15T20:38:06.650Z,54.86
2018-09-15T20:40:35.799Z,55.53
2018-09-15T20:43:04.955Z,54.67
2018-09-15T20:45:34.107Z,55.22
2018-09-15T20:48:03.286Z,54.62
2018-09-15T20:50:32.457Z,54.65
2018-09-15T20:53:01.615Z,55.24
2018-09-15T20:55:30.806Z,54.87
2018-09-15T20:58:00.114Z,54.86
2018-09-15T21:00:29.258Z,54.98
2018-09-15T21:02:58.415Z,55.59
2018-09-15T21:05:27.610Z,55.07
2018-09-15T21:07:56.770Z,54.98
2018-09-15T21:10:25.915Z,55.90
2018-09-15T21:12:55.066Z,55.33
2018-09-15T21:15:24.211Z,55.28
2018-09-15T21:17:53.437Z,55.27
2018-09-15T21:20:22.579Z,55.56
2018-09-15T21:22:52.989Z,56.58
2018-09-15T21:25:22.205Z,56.47
2018-09-15T21:27:51.367Z,56.00
2018-09-15T21:30:20.506Z,55.90
2018-09-15T21:32:50.642Z,55.81
2018-09-15T21:35:20.725Z,56.26
2018-09-15T21:37:50.844Z,56.09
2018-09-15T21:40:20.895Z,56.35
2018-09-15T21:42:50.992Z,56.39
2018-09-15T21:45:21.003Z,56.90
2018-09-15T21:47:51.024Z,57.37
2018-09-15T21:50:21.146Z,56.99
2018-09-15T21:52:51.227Z,56.46
2018-09-15T21:55:21.228Z,56.80
2018-09-15T21:57:51.335Z,57.11
2018-09-15T22:00:21.402Z,57.09
2018-09-15T22:02:51.422Z,57.58
2018-09-15T22:05:21.554Z,57.27
2018-09-15T22:07:52.926Z,57.63
2018-09-15T22:10:22.094Z,58.23
2018-09-15T22:12:53.034Z,57.71
2018-09-15T22:15:26.171Z,58.31
2018-09-15T22:17:57.307Z,58.35
2018-09-15T22:20:26.618Z,57.58
2018-09-15T22:22:55.751Z,58.69
2018-09-15T22:25:24.915Z,58.70
2018-09-15T22:27:54.055Z,57.35
2018-09-15T22:30:23.206Z,57.25
2018-09-15T22:32:52.453Z,57.99
2018-09-15T22:35:22.579Z,58.35
2018-09-15T22:37:53.815Z,58.58
2018-09-15T22:40:23.007Z,58.81
2018-09-15T22:42:53.965Z,58.85
2018-09-15T22:45:23.140Z,58.72
2018-09-15T22:52:56.651Z,60.32
2018-09-15T22:55:25.807Z,59.60
2018-09-15T22:57:55.763Z,59.08
2018-09-15T23:00:24.913Z,58.28
2018-09-15T23:02:54.054Z,58.19
2018-09-15T23:05:23.419Z,58.63
2018-09-15T23:07:53.655Z,58.51
2018-09-15T23:10:23.399Z,58.61
2018-09-15T23:12:53.544Z,57.70
2018-09-15T23:15:23.562Z,57.20
2018-09-15T23:17:53.552Z,58.52
2018-09-15T23:20:23.699Z,57.99
2018-09-15T23:22:53.718Z,58.72
2018-09-15T23:25:23.843Z,58.61
2018-09-15T23:27:53.867Z,58.49
2018-09-15T23:30:23.898Z,58.03
2018-09-15T23:32:53.989Z,58.80
2018-09-15T23:35:24.117Z,59.08
2018-09-15T23:37:54.118Z,59.40
2018-09-15T23:40:24.246Z,59.22
2018-09-15T23:42:54.207Z,58.90
2018-09-15T23:45:24.286Z,58.84
2018-09-15T23:47:54.407Z,58.81
2018-09-15T23:50:24.531Z,58.53
2018-09-15T23:52:54.462Z,59.14
2018-09-15T23:55:24.697Z,58.64
2018-09-15T23:57:54.678Z,59.05
